Time;durP1;ratioP1;P1;durP2;ratioP2;P2;SDS_P1;SDS_P2;PMS_P1;PMS_P2;Temp;Humidity;BMP_temperature;BMP_pressure;BME280_temperature;BME280_humidity;BME280_pressure;Samples;Min_cycle;Max_cycle;Signal;HPM_P1;HPM_P2
2024/01/08 00:01:36;;;;;;;16.93;10.13;;;-0.50;89.60;;;;;;5071901;28;20168;-84
2024/01/08 00:04:03;;;;;;;11.87;8.20;;;-0.40;89.10;;;;;;5071707;28;20699;-84
2024/01/08 00:06:29;;;;;;;12.00;9.20;;;-0.40;87.30;;;;;;5071596;28;20175;-84
2024/01/08 00:08:55;;;;;;;13.30;8.70;;;-0.40;87.50;;;;;;5071542;28;20172;-83
2024/01/08 00:11:21;;;;;;;11.70;8.67;;;-0.30;86.80;;;;;;5071362;28;20164;-83
2024/01/08 00:13:46;;;;;;;13.80;10.07;;;-0.40;84.00;;;;;;5071886;28;20226;-83
2024/01/08 00:16:12;;;;;;;14.43;8.73;;;-0.20;85.40;;;;;;5071470;28;20180;-85
2024/01/08 00:18:38;;;;;;;14.30;9.13;;;-0.40;81.70;;;;;;5071560;28;20259;-85
2024/01/08 00:21:03;;;;;;;11.17;6.67;;;-0.40;82.40;;;;;;5070950;28;20598;-84
2024/01/08 00:23:30;;;;;;;13.53;8.77;;;-0.40;79.60;;;;;;5071936;28;20196;-83
2024/01/08 00:25:56;;;;;;;13.53;7.77;;;-0.20;78.40;;;;;;5071824;28;20276;-83
2024/01/08 00:28:22;;;;;;;9.30;6.77;;;-0.40;78.50;;;;;;5072851;28;20600;-85
2024/01/08 00:30:48;;;;;;;12.23;7.97;;;-0.40;75.20;;;;;;5071797;28;20179;-83
2024/01/08 00:33:13;;;;;;;11.30;8.03;;;-0.40;69.50;;;;;;5072741;28;20259;-85
2024/01/08 00:35:39;;;;;;;14.67;9.60;;;-0.20;65.70;;;;;;5070721;28;20639;-81
2024/01/08 00:38:05;;;;;;;14.40;8.80;;;-0.30;64.60;;;;;;5071234;28;20169;-85
2024/01/08 00:40:31;;;;;;;10.50;7.20;;;-0.20;62.10;;;;;;5071647;28;20184;-83
2024/01/08 00:42:57;;;;;;;12.20;9.63;;;-0.30;60.30;;;;;;5071202;28;20192;-82
2024/01/08 00:45:23;;;;;;;12.03;8.37;;;-0.30;62.40;;;;;;5072156;28;20203;-82
2024/01/08 00:47:49;;;;;;;12.83;8.30;;;-0.20;62.10;;;;;;5070507;28;20172;-84
2024/01/08 00:50:15;;;;;;;11.07;7.77;;;0.00;56.50;;;;;;5071134;28;20194;-82
2024/01/08 00:52:41;;;;;;;9.57;6.97;;;-0.20;48.20;;;;;;5072184;28;20648;-84
2024/01/08 00:55:08;;;;;;;10.03;6.50;;;-0.10;40.50;;;;;;5071628;28;20172;-85
2024/01/08 00:57:34;;;;;;;10.40;6.87;;;-0.20;25.80;;;;;;5071451;28;20196;-85
2024/01/08 01:00:00;;;;;;;11.33;7.20;;;-0.20;18.30;;;;;;5075341;28;20328;-84
2024/01/08 01:02:26;;;;;;;7.80;5.67;;;-0.20;10.20;;;;;;5074335;28;20628;-83
2024/01/08 01:04:51;;;;;;;12.77;6.57;;;-0.20;8.90;;;;;;5075339;28;20313;-83
2024/01/08 01:07:17;;;;;;;9.63;6.23;;;-0.20;9.80;;;;;;5075737;28;20168;-82
2024/01/08 01:09:43;;;;;;;6.03;4.67;;;-0.20;5.50;;;;;;5075475;28;20255;-83
2024/01/08 01:12:09;;;;;;;8.70;5.97;;;-0.10;2.60;;;;;;5074363;28;20593;-83
2024/01/08 01:14:34;;;;;;;10.53;6.00;;;-0.10;3.10;;;;;;5074897;28;20221;-83
2024/01/08 01:17:00;;;;;;;8.03;5.87;;;-0.10;1.00;;;;;;5075138;28;20164;-83
2024/01/08 01:19:26;;;;;;;10.70;6.60;;;-0.10;1.00;;;;;;5073996;28;20244;-83
2024/01/08 01:21:52;;;;;;;7.90;5.60;;;-0.10;1.00;;;;;;5074594;28;20230;-83
2024/01/08 01:24:17;;;;;;;7.07;4.57;;;-0.20;1.00;;;;;;5074309;28;20762;-83
2024/01/08 01:26:43;;;;;;;5.97;4.60;;;-0.30;1.00;;;;;;5073306;28;20169;-82
2024/01/08 01:29:09;;;;;;;9.07;5.63;;;-0.40;1.00;;;;;;5074261;28;20176;-84
2024/01/08 01:31:35;;;;;;;7.00;5.47;;;-0.30;1.00;;;;;;5073194;28;20172;-82
2024/01/08 01:34:01;;;;;;;9.63;5.67;;;-0.20;1.00;;;;;;5074299;28;20176;-82
2024/01/08 01:36:26;;;;;;;6.27;4.20;;;-0.30;1.00;;;;;;5074392;28;20537;-82
2024/01/08 01:38:53;;;;;;;8.30;5.40;;;-0.30;1.00;;;;;;5074045;28;20180;-83
2024/01/08 01:41:18;;;;;;;5.27;4.10;;;-0.40;1.00;;;;;;5073239;28;20180;-83
2024/01/08 01:43:44;;;;;;;8.20;6.17;;;-0.40;1.00;;;;;;5075224;28;20161;-84
2024/01/08 01:46:35;;;;;;;7.10;5.20;;;-0.40;1.00;;;;;;5074289;28;20234;-84
2024/01/08 01:49:01;;;;;;;8.40;6.50;;;-0.30;1.00;;;;;;5074272;28;20168;-83
2024/01/08 01:51:26;;;;;;;7.87;5.97;;;-0.30;1.00;;;;;;5073540;28;20183;-83
2024/01/08 01:53:52;;;;;;;6.77;5.07;;;-0.20;1.00;;;;;;5074269;28;20261;-84
2024/01/08 01:56:18;;;;;;;8.27;5.70;;;-0.30;1.00;;;;;;5073660;28;20192;-82
2024/01/08 01:58:46;;;;;;;7.40;5.30;;;-0.40;1.00;;;;;;5074213;28;20184;-85
2024/01/08 02:01:12;;;;;;;7.13;6.00;;;-0.40;1.00;;;;;;5074087;28;20661;-81
2024/01/08 02:03:39;;;;;;;6.33;4.33;;;-0.40;1.00;;;;;;5074248;28;20191;-83
2024/01/08 02:06:08;;;;;;;8.00;5.10;;;-0.40;1.00;;;;;;5073878;28;20219;-83
2024/01/08 02:08:34;;;;;;;9.27;4.30;;;-0.40;1.00;;;;;;5074069;28;20184;-82
2024/01/08 02:11:01;;;;;;;8.40;5.13;;;-0.50;1.00;;;;;;5073589;28;20318;-82
2024/01/08 02:13:26;;;;;;;7.57;6.10;;;-0.50;1.00;;;;;;5073632;28;20196;-84
2024/01/08 02:15:52;;;;;;;8.53;5.80;;;-0.50;1.00;;;;;;5074114;28;20702;-83
2024/01/08 02:18:19;;;;;;;7.80;5.93;;;-0.50;1.00;;;;;;5073606;28;20648;-83
2024/01/08 02:20:45;;;;;;;6.87;4.67;;;-0.40;1.00;;;;;;5073949;28;20568;-86
2024/01/08 02:23:10;;;;;;;7.73;4.90;;;-0.40;1.00;;;;;;5073910;28;20176;-83
2024/01/08 02:25:37;;;;;;;7.10;4.90;;;-0.50;1.00;;;;;;5073419;28;20192;-82
2024/01/08 02:28:03;;;;;;;8.20;5.30;;;-0.50;1.00;;;;;;5074862;28;20167;-84
2024/01/08 02:30:28;;;;;;;6.77;4.40;;;-0.50;1.00;;;;;;5089036;28;20168;-82
2024/01/08 02:32:54;;;;;;;8.17;6.40;;;-0.50;1.00;;;;;;5094799;28;20191;-82
2024/01/08 02:35:20;;;;;;;7.93;6.10;;;-0.50;1.00;;;;;;5092702;28;20203;-83
2024/01/08 02:37:46;;;;;;;7.37;5.27;;;-0.60;1.00;;;;;;5091560;28;20194;-83
2024/01/08 02:40:12;;;;;;;6.90;5.10;;;-0.60;1.00;;;;;;5093139;28;20186;-83
2024/01/08 02:42:40;;;;;;;6.50;4.50;;;-0.60;1.00;;;;;;5092337;28;20176;-84
2024/01/08 02:45:09;;;;;;;7.80;5.70;;;-0.70;1.00;;;;;;5093572;28;20496;-82
2024/01/08 02:47:37;;;;;;;8.23;5.20;;;-0.70;1.00;;;;;;5093160;28;20268;-85
2024/01/08 02:50:07;;;;;;;7.97;5.03;;;-0.70;1.00;;;;;;5093227;28;20183;-83
2024/01/08 02:52:34;;;;;;;8.77;5.87;;;-0.70;1.00;;;;;;5093289;28;20167;-81
2024/01/08 02:55:00;;;;;;;7.67;5.53;;;-0.70;1.00;;;;;;5092416;28;20217;-83
2024/01/08 02:57:26;;;;;;;6.77;5.20;;;-0.70;1.00;;;;;;5093188;28;20247;-84
2024/01/08 02:59:52;;;;;;;7.97;5.17;;;-0.70;1.00;;;;;;5092730;28;20217;-82
2024/01/08 03:02:17;;;;;;;6.97;5.40;;;-0.60;1.00;;;;;;5093123;28;20521;-82
2024/01/08 03:04:43;;;;;;;7.00;5.63;;;-0.60;1.00;;;;;;5092753;28;20163;-83
2024/01/08 03:07:11;;;;;;;6.77;5.40;;;-0.60;1.00;;;;;;5093212;28;20183;-83
2024/01/08 03:09:37;;;;;;;6.60;5.27;;;-0.60;1.00;;;;;;5092770;28;20171;-85
2024/01/08 03:12:03;;;;;;;7.87;6.27;;;-0.60;1.00;;;;;;5093150;28;20204;-83
2024/01/08 03:14:29;;;;;;;5.17;4.03;;;-0.60;1.00;;;;;;5092309;28;20211;-83
2024/01/08 03:16:54;;;;;;;7.43;5.67;;;-0.60;1.00;;;;;;5092958;28;20225;-83
2024/01/08 03:19:20;;;;;;;9.73;7.20;;;-0.70;1.00;;;;;;5094625;28;20236;-82
2024/01/08 03:21:46;;;;;;;8.47;6.20;;;-0.70;1.00;;;;;;5112923;28;20207;-82
2024/01/08 03:24:11;;;;;;;9.57;7.33;;;-0.70;1.00;;;;;;5109939;28;20158;-82
2024/01/08 03:26:37;;;;;;;8.03;5.90;;;-0.70;1.00;;;;;;5094527;28;20696;-81
2024/01/08 03:29:03;;;;;;;10.27;5.53;;;-0.70;1.00;;;;;;5092648;28;20187;-82
2024/01/08 03:31:29;;;;;;;9.40;7.10;;;-0.70;1.00;;;;;;5093083;28;20549;-83
2024/01/08 03:33:55;;;;;;;10.07;6.97;;;-0.70;1.00;;;;;;5092462;28;20210;-83
2024/01/08 03:36:20;;;;;;;11.57;7.47;;;-0.70;1.00;;;;;;5092428;28;20554;-82
2024/01/08 03:38:46;;;;;;;7.93;5.03;;;-0.70;1.00;;;;;;5092647;28;20175;-82
2024/01/08 03:41:13;;;;;;;7.57;5.80;;;-0.70;1.00;;;;;;5092429;28;20237;-83
2024/01/08 03:43:38;;;;;;;8.77;6.63;;;-0.70;1.00;;;;;;5093064;28;20189;-83
2024/01/08 03:46:04;;;;;;;9.57;6.87;;;-0.70;1.00;;;;;;5091833;28;20257;-82
2024/01/08 03:48:30;;;;;;;7.83;5.70;;;-0.70;1.00;;;;;;5092160;28;20210;-82
2024/01/08 03:50:56;;;;;;;11.33;7.93;;;-0.70;1.00;;;;;;5091894;28;20631;-81
2024/01/08 03:53:21;;;;;;;11.37;7.63;;;-0.70;1.00;;;;;;5091002;28;20172;-82
2024/01/08 03:55:47;;;;;;;8.57;6.03;;;-0.60;1.00;;;;;;5091680;28;20180;-82
2024/01/08 03:58:13;;;;;;;7.03;4.73;;;-0.60;1.00;;;;;;5092030;28;20267;-83
2024/01/08 04:00:38;;;;;;;7.87;5.17;;;-0.70;1.00;;;;;;5092103;28;20183;-83
2024/01/08 04:03:04;;;;;;;7.57;6.57;;;-0.70;1.00;;;;;;5091405;28;20186;-84
2024/01/08 04:05:30;;;;;;;8.27;6.50;;;-0.70;1.00;;;;;;5091540;28;20175;-83
2024/01/08 04:07:55;;;;;;;7.43;6.13;;;-0.60;1.00;;;;;;5091751;28;20180;-82
2024/01/08 04:10:21;;;;;;;9.70;6.27;;;-0.60;1.00;;;;;;5092298;28;20175;-82
2024/01/08 04:12:46;;;;;;;10.27;5.57;;;-0.60;1.00;;;;;;5091440;28;20890;-81
2024/01/08 04:15:12;;;;;;;7.23;5.40;;;-0.70;1.00;;;;;;5091703;28;20211;-82
2024/01/08 04:17:38;;;;;;;7.50;3.43;;;-0.70;1.00;;;;;;5091338;28;20171;-83
2024/01/08 04:20:05;;;;;;;8.10;5.23;;;-0.70;1.00;;;;;;5090870;28;20171;-83
2024/01/08 04:22:30;;;;;;;7.17;5.20;;;-0.70;1.00;;;;;;5091486;28;20171;-83
2024/01/08 04:24:56;;;;;;;8.60;5.80;;;-0.60;1.00;;;;;;5090251;28;20297;-81
2024/01/08 04:27:21;;;;;;;8.13;5.63;;;-0.60;1.00;;;;;;5091576;28;20206;-82
2024/01/08 04:29:47;;;;;;;5.50;4.33;;;-0.60;1.00;;;;;;5092783;28;20178;-81
2024/01/08 04:32:13;;;;;;;5.70;5.10;;;-0.60;1.00;;;;;;5091137;28;20163;-83
2024/01/08 04:34:38;;;;;;;8.47;5.23;;;-0.60;1.00;;;;;;5093427;28;20195;-82
2024/01/08 04:37:04;;;;;;;4.47;3.47;;;-0.60;1.00;;;;;;5095262;28;20179;-84
2024/01/08 04:39:30;;;;;;;6.00;4.47;;;-0.60;1.00;;;;;;5095757;28;20200;-82
2024/01/08 04:41:55;;;;;;;5.77;4.57;;;-0.50;1.00;;;;;;5094370;28;20178;-81
2024/01/08 04:44:21;;;;;;;4.73;3.27;;;-0.70;1.00;;;;;;5095603;28;20255;-81
2024/01/08 04:46:47;;;;;;;6.43;4.43;;;-0.70;1.00;;;;;;5095281;28;20171;-84
2024/01/08 04:49:12;;;;;;;5.87;4.20;;;-0.50;1.00;;;;;;5093460;28;20171;-83
2024/01/08 04:51:38;;;;;;;5.23;4.10;;;-0.60;1.00;;;;;;5094530;28;20626;-82
2024/01/08 04:54:05;;;;;;;3.83;3.17;;;-0.60;1.00;;;;;;5095172;28;20218;-83
2024/01/08 04:56:30;;;;;;;4.50;3.87;;;-0.70;1.00;;;;;;5093933;28;20187;-83
2024/01/08 04:58:56;;;;;;;7.73;4.37;;;-0.70;1.00;;;;;;5095411;28;20341;-82
2024/01/08 05:01:22;;;;;;;7.07;5.10;;;-0.60;1.00;;;;;;5095066;28;20172;-81
2024/01/08 05:03:47;;;;;;;6.50;4.90;;;-0.60;1.00;;;;;;5095225;28;20181;-83
2024/01/08 05:06:13;;;;;;;6.73;5.37;;;-0.50;1.00;;;;;;5096939;28;20168;-81
2024/01/08 05:08:39;;;;;;;6.03;4.50;;;-0.50;1.00;;;;;;5102784;28;20189;-82
2024/01/08 05:11:08;;;;;;;5.70;4.60;;;-0.50;1.00;;;;;;5120676;28;20175;-81
2024/01/08 05:13:35;;;;;;;6.33;5.17;;;-0.40;1.00;;;;;;5105973;28;20211;-82
2024/01/08 05:16:01;;;;;;;5.60;4.23;;;-0.60;1.00;;;;;;5120159;28;20180;-83
2024/01/08 05:18:28;;;;;;;5.53;4.37;;;-0.60;1.00;;;;;;5120138;28;20175;-82
2024/01/08 05:20:54;;;;;;;7.70;5.63;;;-0.70;1.00;;;;;;5121443;28;20187;-83
2024/01/08 05:23:20;;;;;;;6.77;4.53;;;-0.70;1.00;;;;;;5120485;28;20194;-81
2024/01/08 05:25:45;;;;;;;5.00;4.00;;;-0.70;1.00;;;;;;5119668;28;20183;-84
2024/01/08 05:28:11;;;;;;;5.83;5.07;;;-0.80;1.00;;;;;;5120604;28;20163;-81
2024/01/08 05:30:37;;;;;;;5.50;4.37;;;-0.80;1.00;;;;;;5120020;28;20677;-82
2024/01/08 05:33:03;;;;;;;5.80;5.10;;;-0.80;1.00;;;;;;5120122;28;20172;-83
2024/01/08 05:35:29;;;;;;;8.40;5.03;;;-0.80;1.00;;;;;;5120078;28;20199;-81
2024/01/08 05:37:56;;;;;;;6.93;4.63;;;-0.80;1.00;;;;;;5110103;28;20190;-82
2024/01/08 05:40:21;;;;;;;6.97;4.90;;;-0.80;1.00;;;;;;5106200;28;20186;-83
2024/01/08 05:42:47;;;;;;;6.53;5.10;;;-0.90;1.00;;;;;;5114133;28;20172;-81
2024/01/08 05:45:13;;;;;;;6.53;5.80;;;-0.90;1.00;;;;;;5102539;28;20191;-81
2024/01/08 05:47:39;;;;;;;7.40;5.47;;;-0.90;1.00;;;;;;5119985;28;20180;-83
2024/01/08 05:50:05;;;;;;;7.10;4.47;;;-0.90;1.00;;;;;;5119391;28;20156;-82
2024/01/08 05:52:34;;;;;;;8.57;4.27;;;-1.00;1.00;;;;;;5119359;28;20191;-82
2024/01/08 05:55:00;;;;;;;6.73;5.13;;;-1.00;1.00;;;;;;5118861;28;20199;-83
2024/01/08 05:57:26;;;;;;;7.20;5.43;;;-1.00;1.00;;;;;;5119543;28;20452;-82
2024/01/08 05:59:52;;;;;;;5.53;4.17;;;-0.90;1.00;;;;;;5101147;28;20203;-82
2024/01/08 06:02:18;;;;;;;7.60;5.50;;;-0.90;1.00;;;;;;5094088;28;20527;-82
2024/01/08 06:04:44;;;;;;;6.30;4.37;;;-0.90;1.00;;;;;;5095866;28;20168;-81
2024/01/08 06:07:10;;;;;;;6.37;4.50;;;-0.90;1.00;;;;;;5095030;28;20171;-83
2024/01/08 06:09:36;;;;;;;6.43;4.93;;;-0.90;1.00;;;;;;5095108;28;20191;-83
2024/01/08 06:12:01;;;;;;;6.33;4.33;;;-0.90;1.00;;;;;;5095482;28;20175;-82
2024/01/08 06:14:27;;;;;;;7.10;4.00;;;-0.90;1.00;;;;;;5095114;28;20714;-82
2024/01/08 06:16:53;;;;;;;6.73;5.13;;;-0.90;1.00;;;;;;5094527;28;20175;-83
2024/01/08 06:19:18;;;;;;;6.90;5.40;;;-0.90;1.00;;;;;;5094378;28;20167;-82
2024/01/08 06:21:44;;;;;;;7.10;5.23;;;-0.90;1.00;;;;;;5095823;28;20705;-83
2024/01/08 06:24:10;;;;;;;8.33;5.90;;;-0.90;1.00;;;;;;5095607;28;20251;-81
2024/01/08 06:26:36;;;;;;;7.77;5.50;;;-0.80;1.00;;;;;;5094018;28;20640;-83
2024/01/08 06:29:02;;;;;;;7.60;6.00;;;-0.80;1.00;;;;;;5094048;28;20182;-81
2024/01/08 06:31:28;;;;;;;6.10;5.00;;;-0.70;1.00;;;;;;5093819;28;20526;-81
2024/01/08 06:33:54;;;;;;;5.80;4.47;;;-0.70;1.00;;;;;;5094422;28;20203;-83
2024/01/08 06:36:20;;;;;;;8.67;5.73;;;-0.80;1.00;;;;;;5091699;28;20198;-83
2024/01/08 06:38:46;;;;;;;6.47;5.30;;;-0.80;1.00;;;;;;5086854;28;20228;-83
2024/01/08 06:41:11;;;;;;;8.17;5.50;;;-0.80;1.00;;;;;;5093403;28;20274;-82
2024/01/08 06:43:38;;;;;;;8.10;6.17;;;-0.90;1.00;;;;;;5093289;28;20187;-83
2024/01/08 06:46:06;;;;;;;9.90;6.40;;;-0.90;1.00;;;;;;5093313;28;20198;-83
2024/01/08 06:48:32;;;;;;;6.67;4.97;;;-0.90;1.00;;;;;;5093705;28;20641;-82
2024/01/08 06:51:01;;;;;;;7.93;6.03;;;-0.70;1.00;;;;;;5093194;28;20211;-84
2024/01/08 06:53:26;;;;;;;7.07;4.53;;;-0.90;1.00;;;;;;5094069;28;20167;-82
2024/01/08 06:55:52;;;;;;;6.37;4.90;;;-0.80;1.00;;;;;;5093802;28;20187;-84
2024/01/08 06:58:17;;;;;;;6.37;4.53;;;-0.90;1.00;;;;;;5094619;28;20250;-84
2024/01/08 07:00:43;;;;;;;5.20;4.60;;;-1.00;1.00;;;;;;5098775;28;20163;-81
2024/01/08 07:03:09;;;;;;;10.43;5.60;;;-1.00;1.00;;;;;;5116443;28;20183;-83
2024/01/08 07:05:35;;;;;;;9.37;6.03;;;-1.00;1.00;;;;;;5115226;28;20254;-79
2024/01/08 07:08:00;;;;;;;7.67;5.53;;;-1.00;1.00;;;;;;5114920;28;20182;-84
2024/01/08 07:10:28;;;;;;;5.97;4.87;;;-1.00;1.00;;;;;;5094632;28;20187;-81
2024/01/08 07:12:57;;;;;;;7.90;5.67;;;-0.90;1.00;;;;;;5094006;28;20171;-87
2024/01/08 07:15:39;;;;;;;8.70;5.40;;;-0.90;1.00;;;;;;5092834;28;20580;-81
2024/01/08 07:18:05;;;;;;;6.37;4.67;;;-1.00;1.00;;;;;;5093486;28;20217;-85
2024/01/08 07:20:31;;;;;;;7.10;4.13;;;-1.00;1.00;;;;;;5093717;28;20194;-83
2024/01/08 07:22:57;;;;;;;9.53;5.93;;;-1.00;1.00;;;;;;5091648;28;20175;-84
2024/01/08 07:25:22;;;;;;;9.17;6.70;;;-0.90;1.00;;;;;;5092399;28;20195;-82
2024/01/08 07:27:48;;;;;;;6.23;4.53;;;-0.90;1.00;;;;;;5091454;28;20253;-85
2024/01/08 07:30:14;;;;;;;7.13;5.40;;;-0.80;1.00;;;;;;5093318;28;20556;-83
2024/01/08 07:32:40;;;;;;;9.00;6.13;;;-0.90;1.00;;;;;;5091591;28;20560;-82
2024/01/08 07:35:05;;;;;;;7.57;5.00;;;-0.90;1.00;;;;;;5092208;28;20548;-85
2024/01/08 07:37:31;;;;;;;16.27;7.00;;;-0.80;1.00;;;;;;5092298;28;20198;-83
2024/01/08 07:39:57;;;;;;;20.87;7.80;;;-0.90;1.00;;;;;;5091458;28;20229;-85
2024/01/08 07:42:23;;;;;;;8.93;5.60;;;-0.90;1.00;;;;;;5093025;28;20195;-86
2024/01/08 07:44:48;;;;;;;8.50;5.97;;;-0.90;1.00;;;;;;5091315;28;20178;-84
2024/01/08 07:47:14;;;;;;;10.63;6.67;;;-0.90;1.00;;;;;;5093515;28;20172;-81
2024/01/08 07:49:40;;;;;;;7.43;4.93;;;-0.90;1.00;;;;;;5093239;28;20175;-84
2024/01/08 07:52:05;;;;;;;8.17;5.90;;;-0.80;1.00;;;;;;5091853;28;20179;-79
2024/01/08 07:54:31;;;;;;;10.17;6.50;;;-0.90;1.00;;;;;;5088146;28;20207;-80
2024/01/08 07:56:57;;;;;;;8.63;5.53;;;-0.80;1.00;;;;;;5079901;28;20180;-82
2024/01/08 07:59:22;;;;;;;9.83;5.70;;;-0.80;1.00;;;;;;5071363;28;20632;-80
2024/01/08 08:01:48;;;;;;;8.97;5.83;;;-0.80;1.00;;;;;;5072384;28;20168;-82
2024/01/08 08:04:15;;;;;;;9.17;6.90;;;-0.80;1.00;;;;;;5071151;28;20187;-83
2024/01/08 08:06:41;;;;;;;10.30;6.37;;;-0.90;1.00;;;;;;5071219;28;20241;-81
2024/01/08 08:09:07;;;;;;;8.67;6.53;;;-0.80;1.00;;;;;;5070521;28;20180;-81
2024/01/08 08:11:32;;;;;;;7.50;6.20;;;-0.80;1.00;;;;;;5071361;28;20628;-80
2024/01/08 08:13:58;;;;;;;7.90;5.73;;;-0.80;1.00;;;;;;5071346;28;20215;-83
2024/01/08 08:16:24;;;;;;;7.63;6.00;;;-0.80;1.00;;;;;;5072347;28;20616;-82
2024/01/08 08:18:49;;;;;;;9.60;5.70;;;-0.90;1.00;;;;;;5071205;28;20176;-81
2024/01/08 08:21:17;;;;;;;8.17;5.80;;;-0.80;4.30;;;;;;5071208;28;20180;-83
2024/01/08 08:23:42;;;;;;;11.00;6.47;;;-0.80;3.30;;;;;;5071060;28;20203;-82
2024/01/08 08:26:08;;;;;;;12.50;7.93;;;-0.70;4.50;;;;;;5072209;28;20211;-80
2024/01/08 08:28:34;;;;;;;10.43;7.40;;;-0.70;1.30;;;;;;5071166;28;20654;-79
2024/01/08 08:31:00;;;;;;;10.77;6.37;;;-0.70;3.30;;;;;;5071360;28;20263;-80
2024/01/08 08:33:25;;;;;;;10.97;5.87;;;-0.70;1.00;;;;;;5072288;28;20180;-82
2024/01/08 08:35:51;;;;;;;13.07;7.40;;;-0.70;2.80;;;;;;5071131;28;20262;-82
2024/01/08 08:38:17;;;;;;;11.87;6.67;;;-0.70;8.00;;;;;;5071071;28;20259;-81
2024/01/08 08:40:43;;;;;;;11.27;7.47;;;-0.60;7.90;;;;;;5070837;28;20513;-83
2024/01/08 08:43:09;;;;;;;9.73;7.07;;;-0.60;4.60;;;;;;5070830;28;20584;-81
2024/01/08 08:45:35;;;;;;;9.33;6.43;;;-0.70;5.40;;;;;;5072488;28;20195;-81
2024/01/08 08:48:01;;;;;;;9.07;6.00;;;-0.70;8.40;;;;;;5071045;28;20640;-80
2024/01/08 08:50:27;;;;;;;8.20;5.70;;;-0.60;6.80;;;;;;5071040;28;20164;-82
2024/01/08 08:52:53;;;;;;;9.77;7.07;;;-0.60;6.90;;;;;;5071079;28;20755;-81
2024/01/08 08:55:18;;;;;;;8.23;6.33;;;-0.70;7.10;;;;;;5072004;28;20324;-81
2024/01/08 08:57:44;;;;;;;9.60;7.47;;;-0.60;8.00;;;;;;5071012;28;20575;-80
2024/01/08 09:00:10;;;;;;;7.30;5.97;;;-0.60;8.70;;;;;;5072674;28;20169;-82
2024/01/08 09:02:36;;;;;;;9.37;5.87;;;-0.60;7.70;;;;;;5075793;28;20596;-80
2024/01/08 09:05:04;;;;;;;8.40;6.17;;;-0.60;11.80;;;;;;5088943;28;20254;-81
2024/01/08 09:07:30;;;;;;;11.10;7.93;;;-0.60;14.40;;;;;;5090552;28;20211;-82
2024/01/08 09:09:55;;;;;;;10.80;6.77;;;-0.70;14.40;;;;;;5090837;28;20709;-84
2024/01/08 09:12:21;;;;;;;10.90;7.77;;;-0.70;15.80;;;;;;5091387;28;20179;-83
2024/01/08 09:14:47;;;;;;;12.00;7.60;;;-0.60;16.00;;;;;;5092319;28;20671;-81
2024/01/08 09:17:13;;;;;;;10.30;7.37;;;-0.60;17.50;;;;;;5092308;28;20209;-83
2024/01/08 09:19:38;;;;;;;10.13;7.10;;;-0.60;16.10;;;;;;5091918;28;20172;-83
2024/01/08 09:22:04;;;;;;;11.80;8.27;;;-0.50;18.80;;;;;;5094977;28;20182;-82
2024/01/08 09:24:30;;;;;;;9.47;6.83;;;-0.50;18.70;;;;;;5094896;28;20192;-81
2024/01/08 09:26:56;;;;;;;12.70;8.07;;;-0.50;20.80;;;;;;5094842;28;20167;-83
2024/01/08 09:29:21;;;;;;;12.90;8.43;;;-0.30;21.70;;;;;;5094908;28;20176;-81
2024/01/08 09:31:47;;;;;;;9.67;5.83;;;-0.50;22.10;;;;;;5094333;28;20253;-81
2024/01/08 09:34:13;;;;;;;12.57;7.87;;;-0.60;20.80;;;;;;5094840;28;20337;-82
2024/01/08 09:36:39;;;;;;;12.67;9.50;;;-0.50;25.40;;;;;;5094430;28;20195;-82
2024/01/08 09:39:05;;;;;;;10.73;7.43;;;-0.50;29.90;;;;;;5094495;28;20197;-80
2024/01/08 09:41:31;;;;;;;10.17;6.40;;;-0.50;29.60;;;;;;5095270;28;20262;-82
2024/01/08 09:44:02;;;;;;;11.23;8.50;;;-0.50;31.30;;;;;;5095739;28;20153;-82
2024/01/08 09:46:32;;;;;;;12.87;9.83;;;-0.50;39.50;;;;;;5093820;28;20171;-82
2024/01/08 09:49:00;;;;;;;12.00;8.87;;;-0.50;44.50;;;;;;5095679;28;20167;-82
2024/01/08 09:51:26;;;;;;;12.33;8.83;;;-0.50;48.90;;;;;;5095984;28;20156;-83
2024/01/08 09:53:52;;;;;;;12.33;8.93;;;-0.50;52.60;;;;;;5094464;28;20568;-82
2024/01/08 09:56:22;;;;;;;12.97;8.97;;;-0.50;54.90;;;;;;5094222;28;20233;-83
2024/01/08 09:58:48;;;;;;;12.30;8.90;;;-0.40;61.50;;;;;;5095323;28;20246;-82
2024/01/08 10:01:13;;;;;;;12.50;9.57;;;-0.40;69.30;;;;;;5093830;28;20278;-82
2024/01/08 10:03:39;;;;;;;12.30;9.50;;;-0.40;69.60;;;;;;5094011;28;20281;-82
2024/01/08 10:06:09;;;;;;;12.43;9.70;;;-0.40;70.60;;;;;;5093828;28;20179;-83
2024/01/08 10:08:35;;;;;;;15.07;9.00;;;-0.30;74.50;;;;;;5093694;28;20180;-81
2024/01/08 10:11:05;;;;;;;15.40;9.70;;;-0.30;75.00;;;;;;5095042;28;20616;-84
2024/01/08 10:13:31;;;;;;;11.10;7.87;;;-0.30;69.70;;;;;;5094854;28;20163;-83
2024/01/08 10:15:57;;;;;;;12.83;9.80;;;-0.30;67.10;;;;;;5093635;28;20245;-81
2024/01/08 10:18:24;;;;;;;17.03;8.27;;;-0.50;64.80;;;;;;5093598;28;20179;-81
2024/01/08 10:21:09;;;;;;;12.03;9.03;;;-0.50;63.40;;;;;;5094050;28;20175;-84
2024/01/08 10:23:35;;;;;;;10.07;7.40;;;-0.50;62.50;;;;;;5093427;28;20259;-82
2024/01/08 10:26:02;;;;;;;12.07;9.60;;;-0.40;63.40;;;;;;5084511;28;20206;-83
2024/01/08 10:28:35;;;;;;;13.53;10.00;;;-0.40;69.30;;;;;;5073195;28;20655;-81
2024/01/08 10:31:07;;;;;;;12.13;9.40;;;-0.30;71.80;;;;;;5072683;28;20176;-82
2024/01/08 10:33:33;;;;;;;12.83;9.80;;;-0.40;65.90;;;;;;5072994;28;20172;-82
2024/01/08 10:36:05;;;;;;;12.43;9.63;;;-0.40;65.50;;;;;;5074168;28;20160;-82
2024/01/08 10:38:35;;;;;;;11.40;8.40;;;-0.30;65.30;;;;;;5072893;28;20181;-84
2024/01/08 10:41:02;;;;;;;11.87;8.97;;;-0.30;62.10;;;;;;5072980;28;20718;-82
2024/01/08 10:43:28;;;;;;;13.50;10.47;;;-0.20;62.10;;;;;;5072898;28;20532;-81
2024/01/08 10:46:03;;;;;;;11.87;9.43;;;-0.10;58.60;;;;;;5072583;28;20204;-83
2024/01/08 10:48:40;;;;;;;11.67;8.63;;;-0.10;60.20;;;;;;5072845;28;20195;-83
2024/01/08 10:51:07;;;;;;;14.60;9.57;;;-0.20;56.00;;;;;;5073125;28;20197;-82
2024/01/08 10:53:36;;;;;;;11.33;8.60;;;-0.10;56.60;;;;;;5072679;28;20267;-81
2024/01/08 10:56:09;;;;;;;12.87;9.23;;;-0.10;55.20;;;;;;5072835;28;20261;-80
2024/01/08 10:58:38;;;;;;;13.27;9.47;;;-0.10;55.40;;;;;;5072337;28;20267;-81
2024/01/08 11:01:04;;;;;;;11.00;8.30;;;0.00;50.90;;;;;;5072545;28;20195;-81
2024/01/08 11:03:30;;;;;;;15.43;10.20;;;-0.10;46.00;;;;;;5073632;28;20636;-80
2024/01/08 11:05:58;;;;;;;8.87;6.67;;;-0.10;49.30;;;;;;5072383;28;20180;-81
2024/01/08 11:08:25;;;;;;;11.67;9.17;;;-0.20;43.20;;;;;;5072839;28;20570;-80
2024/01/08 11:10:51;;;;;;;11.40;8.10;;;-0.10;45.20;;;;;;5072632;28;20180;-81
2024/01/08 11:13:17;;;;;;;11.27;8.77;;;-0.10;40.30;;;;;;5072116;28;20264;-81
2024/01/08 11:15:45;;;;;;;7.80;6.03;;;-0.10;31.80;;;;;;5073766;28;20290;-80
2024/01/08 11:18:31;;;;;;;10.83;7.33;;;-0.20;28.40;;;;;;5072453;28;20172;-84
2024/01/08 11:20:57;;;;;;;9.43;6.37;;;-0.30;16.80;;;;;;5071797;28;20177;-82
2024/01/08 11:23:32;;;;;;;10.67;7.90;;;-0.20;17.40;;;;;;5072338;28;20173;-81
2024/01/08 11:26:02;;;;;;;10.87;8.77;;;-0.20;17.70;;;;;;5072119;28;20222;-80
2024/01/08 11:28:30;;;;;;;11.40;7.83;;;-0.10;19.40;;;;;;5071941;28;20168;-83
2024/01/08 11:31:22;;;;;;;10.80;7.83;;;-0.10;12.20;;;;;;5071877;28;20177;-80
2024/01/08 11:33:47;;;;;;;8.70;7.00;;;-0.10;16.40;;;;;;5041124;28;20280;-82
2024/01/08 11:36:25;;;;;;;9.03;6.37;;;-0.10;10.00;;;;;;5071989;28;20176;-83
2024/01/08 11:39:13;;;;;;;10.33;6.73;;;0.00;7.60;;;;;;5071803;28;20176;-81
2024/01/08 11:41:40;;;;;;;10.60;8.57;;;0.00;8.20;;;;;;5071795;28;20176;-82
2024/01/08 11:44:05;;;;;;;10.93;6.83;;;0.00;11.20;;;;;;5072955;28;20242;-83
2024/01/08 11:46:34;;;;;;;9.93;8.00;;;0.00;4.90;;;;;;5076380;28;20584;-82
2024/01/08 11:49:00;;;;;;;9.60;7.50;;;0.00;1.60;;;;;;5083162;28;20172;-83
2024/01/08 11:51:26;;;;;;;7.03;5.53;;;0.00;1.00;;;;;;5093091;28;20178;-80
2024/01/08 11:53:53;;;;;;;12.70;8.00;;;0.00;1.00;;;;;;5092220;28;20536;-81
2024/01/08 11:56:18;;;;;;;10.03;7.67;;;0.00;1.00;;;;;;5092142;28;20777;-80
2024/01/08 11:58:44;;;;;;;10.27;8.07;;;0.10;1.00;;;;;;5093371;28;20171;-81
2024/01/08 12:01:19;;;;;;;10.40;6.93;;;0.20;1.00;;;;;;5092121;28;20616;-80
2024/01/08 12:03:45;;;;;;;8.87;7.40;;;0.30;1.00;;;;;;5091928;28;21037;-81
2024/01/08 12:06:12;;;;;;;9.27;6.03;;;0.20;1.00;;;;;;5091934;28;20168;-80
2024/01/08 12:08:38;;;;;;;9.00;6.40;;;0.20;1.00;;;;;;5092750;28;20266;-80
2024/01/08 12:11:04;;;;;;;8.30;6.17;;;0.20;1.00;;;;;;5092747;28;20172;-80
2024/01/08 12:13:30;;;;;;;10.07;6.70;;;0.20;1.00;;;;;;5091794;28;20174;-80
2024/01/08 12:15:57;;;;;;;7.63;5.97;;;0.30;1.00;;;;;;5092670;28;20172;-81
2024/01/08 12:18:23;;;;;;;9.13;6.53;;;0.30;1.00;;;;;;5091631;28;20178;-81
2024/01/08 12:20:52;;;;;;;7.27;5.13;;;0.30;1.00;;;;;;5091636;28;20175;-81
2024/01/08 12:23:18;;;;;;;9.67;7.17;;;0.30;1.00;;;;;;5092644;28;20167;-82
2024/01/08 12:25:49;;;;;;;8.27;6.50;;;0.30;1.00;;;;;;5090938;28;20191;-80
2024/01/08 12:28:14;;;;;;;6.87;4.83;;;0.50;1.00;;;;;;5091129;28;20214;-81
2024/01/08 12:30:40;;;;;;;9.10;6.77;;;0.30;1.00;;;;;;5090983;28;20199;-81
2024/01/08 12:33:07;;;;;;;9.27;6.73;;;0.30;1.00;;;;;;5091765;28;20221;-80
2024/01/08 12:35:36;;;;;;;12.63;7.30;;;0.30;1.00;;;;;;5091397;28;20208;-80
2024/01/08 12:38:02;;;;;;;9.73;6.87;;;0.40;1.00;;;;;;5091682;28;20202;-80
2024/01/08 12:40:28;;;;;;;9.90;6.07;;;0.50;1.00;;;;;;5091324;28;20179;-81
2024/01/08 12:42:55;;;;;;;7.70;6.90;;;0.60;1.00;;;;;;5092701;28;20168;-80
2024/01/08 12:45:20;;;;;;;8.67;6.93;;;0.60;1.00;;;;;;5091555;28;20220;-84
2024/01/08 12:47:46;;;;;;;7.93;5.80;;;0.60;1.00;;;;;;5092986;28;20247;-82